Terminal Aerodrome Forecast
Issued by NWS Binghamton, NY

Home | Current Version | Previous Version | Text Only | Print | Product List | Glossary On
Versions: 1 2 3 4 5 6 7 8 9 10 11 12 13 14 15 16
000
FTUS41 KBGM 291735
TAFSYR
TAF
KSYR 291735Z 2918/3018 24005KT P6SM SCT040 BKN200
     FM300100 18008KT P6SM SCT100 BKN200
     FM300600 20007KT P6SM OVC060
      TEMPO 3012/3015 -SHRA OVC040
     FM301500 27010KT P6SM BKN050=

USA.gov is the U.S. government's official web portal to all federal, state and local government web resources and services.